createdAt,value
2018-08-30T00:01:30.430Z,18.84
2018-08-30T00:03:58.908Z,18.83
2018-08-30T00:06:27.000Z,18.69
2018-08-30T00:08:55.119Z,18.65
2018-08-30T00:11:23.198Z,18.74
2018-08-30T00:13:51.421Z,18.73
2018-08-30T00:16:19.942Z,18.81
2018-08-30T00:18:48.119Z,18.85
2018-08-30T00:21:16.275Z,18.89
2018-08-30T00:23:44.567Z,18.91
2018-08-30T00:26:13.559Z,18.92
2018-08-30T00:28:41.649Z,18.97
2018-08-30T00:31:09.821Z,18.98
2018-08-30T00:33:39.106Z,18.94
2018-08-30T00:36:07.235Z,18.87
2018-08-30T00:38:35.335Z,18.73
2018-08-30T00:41:03.503Z,18.60
2018-08-30T00:43:31.652Z,18.54
2018-08-30T00:45:59.801Z,18.46
2018-08-30T00:48:27.956Z,18.56
2018-08-30T00:50:56.068Z,18.65
2018-08-30T00:53:24.160Z,18.38
2018-08-30T00:55:52.265Z,18.14
2018-08-30T00:58:20.407Z,18.21
2018-08-30T01:00:48.562Z,18.19
2018-08-30T01:03:17.037Z,18.38
2018-08-30T01:05:45.150Z,18.37
2018-08-30T01:08:13.272Z,18.48
2018-08-30T01:10:41.411Z,18.58
2018-08-30T01:13:09.805Z,18.58
2018-08-30T01:15:37.949Z,18.70
2018-08-30T01:18:06.117Z,18.72
2018-08-30T01:20:34.261Z,18.74
2018-08-30T01:23:02.396Z,18.79
2018-08-30T01:25:30.784Z,18.88
2018-08-30T01:27:58.950Z,18.78
2018-08-30T01:30:27.104Z,18.86
2018-08-30T01:32:55.259Z,18.87
2018-08-30T01:35:23.419Z,19.06
2018-08-30T01:37:51.537Z,19.01
2018-08-30T01:40:19.665Z,18.95
2018-08-30T01:42:47.808Z,18.95
2018-08-30T01:45:15.918Z,18.90
2018-08-30T01:47:44.080Z,18.78
2018-08-30T01:50:12.271Z,18.76
2018-08-30T01:52:40.387Z,18.71
2018-08-30T01:55:08.515Z,18.77
2018-08-30T01:57:36.632Z,18.67
2018-08-30T02:00:04.910Z,18.55
2018-08-30T02:02:33.052Z,18.54
2018-08-30T02:05:01.208Z,18.52
2018-08-30T02:07:29.384Z,18.68
2018-08-30T02:09:57.621Z,18.58
2018-08-30T02:12:25.757Z,18.56
2018-08-30T02:14:53.877Z,18.55
2018-08-30T02:17:22.026Z,18.54
2018-08-30T02:19:50.157Z,18.47
2018-08-30T02:22:18.387Z,18.46
2018-08-30T02:24:46.565Z,18.48
2018-08-30T02:27:14.664Z,18.50
2018-08-30T02:29:42.765Z,18.51
2018-08-30T02:32:10.917Z,18.48
2018-08-30T02:34:39.100Z,18.36
2018-08-30T02:37:07.220Z,18.33
2018-08-30T02:39:35.425Z,18.27
2018-08-30T02:42:03.552Z,18.33
2018-08-30T02:44:31.750Z,18.31
2018-08-30T02:46:59.861Z,18.34
2018-08-30T02:49:28.060Z,18.21
2018-08-30T02:51:56.257Z,18.29
2018-08-30T02:54:24.469Z,18.27
2018-08-30T02:56:52.613Z,18.32
2018-08-30T02:59:20.717Z,18.21
2018-08-30T03:01:48.885Z,18.23
2018-08-30T03:04:17.049Z,18.17
2018-08-30T03:06:51.520Z,18.21
2018-08-30T03:09:19.747Z,18.17
2018-08-30T03:11:47.886Z,18.11
2018-08-30T03:14:16.046Z,18.06
2018-08-30T03:16:44.206Z,18.03
2018-08-30T03:19:12.377Z,18.08
2018-08-30T03:21:40.516Z,18.03
2018-08-30T03:24:08.676Z,17.97
2018-08-30T03:26:36.787Z,17.85
2018-08-30T03:29:05.508Z,17.75
2018-08-30T03:31:33.904Z,17.81
2018-08-30T03:34:02.056Z,17.78
2018-08-30T03:36:30.180Z,17.88
2018-08-30T03:38:58.328Z,17.80
2018-08-30T03:41:26.422Z,17.80
2018-08-30T03:43:54.579Z,17.74
2018-08-30T03:46:22.743Z,17.72
2018-08-30T03:48:50.835Z,17.63
2018-08-30T03:51:18.974Z,17.66
2018-08-30T03:53:47.121Z,17.68
2018-08-30T03:56:15.254Z,17.60
2018-08-30T03:58:43.384Z,17.49
2018-08-30T04:01:11.605Z,17.39
2018-08-30T04:03:39.722Z,17.23
2018-08-30T04:06:07.881Z,17.18
2018-08-30T04:08:36.045Z,17.12
2018-08-30T04:11:04.205Z,17.09
2018-08-30T04:13:32.412Z,17.07
2018-08-30T04:16:00.513Z,17.03
2018-08-30T04:18:28.648Z,17.02
2018-08-30T04:20:56.842Z,16.93
2018-08-30T04:23:24.980Z,16.91
2018-08-30T04:25:53.133Z,17.00
2018-08-30T04:28:21.229Z,16.90
2018-08-30T04:30:49.413Z,16.90
2018-08-30T04:33:17.607Z,16.86
2018-08-30T04:35:45.757Z,16.84
2018-08-30T04:38:13.897Z,16.82
2018-08-30T04:40:42.048Z,16.75
2018-08-30T04:43:10.824Z,16.72
2018-08-30T04:45:39.012Z,16.73
2018-08-30T04:48:07.138Z,16.75
2018-08-30T04:50:35.321Z,16.78
2018-08-30T04:53:03.448Z,16.74
2018-08-30T04:55:31.558Z,16.78
2018-08-30T04:57:59.720Z,16.72
2018-08-30T05:00:27.901Z,16.64
2018-08-30T05:02:56.001Z,16.66
2018-08-30T05:05:24.134Z,16.67
2018-08-30T05:07:52.305Z,16.63
2018-08-30T05:10:20.481Z,16.66
2018-08-30T05:12:48.659Z,16.57
2018-08-30T05:15:16.785Z,16.59
2018-08-30T05:17:44.953Z,16.47
2018-08-30T05:20:13.115Z,16.55
2018-08-30T05:22:41.252Z,16.58
2018-08-30T05:25:09.394Z,16.53
2018-08-30T05:27:37.608Z,16.56
2018-08-30T05:30:05.761Z,16.53
2018-08-30T05:32:34.597Z,16.53
2018-08-30T05:35:02.775Z,16.60
2018-08-30T05:37:31.020Z,16.65
2018-08-30T05:39:59.217Z,16.67
2018-08-30T05:42:27.338Z,16.71
2018-08-30T05:44:55.491Z,16.69
2018-08-30T05:47:23.611Z,16.76
2018-08-30T05:49:51.745Z,16.81
2018-08-30T05:52:19.893Z,16.75
2018-08-30T05:54:49.111Z,16.68
2018-08-30T05:57:17.206Z,16.67
2018-08-30T05:59:45.337Z,16.76
2018-08-30T06:02:13.500Z,16.75
2018-08-30T06:04:41.650Z,16.82
2018-08-30T06:07:09.842Z,16.72
2018-08-30T06:09:37.975Z,16.66
2018-08-30T06:12:06.175Z,16.68
2018-08-30T06:14:34.325Z,16.71
2018-08-30T06:17:02.493Z,16.83
2018-08-30T06:19:30.683Z,16.84
2018-08-30T06:21:58.833Z,16.84
2018-08-30T06:24:26.984Z,16.73
2018-08-30T06:26:55.249Z,16.69
2018-08-30T06:29:23.359Z,16.74
2018-08-30T06:31:51.640Z,16.65
2018-08-30T06:34:19.797Z,16.72
2018-08-30T06:36:48.009Z,16.75
2018-08-30T06:39:16.141Z,16.73
2018-08-30T06:41:44.295Z,16.75
2018-08-30T06:44:12.539Z,16.72
2018-08-30T06:46:40.754Z,16.74
2018-08-30T06:49:08.893Z,16.78
2018-08-30T06:51:37.053Z,16.85
2018-08-30T06:54:05.192Z,16.88
2018-08-30T06:56:33.378Z,16.94
2018-08-30T06:59:01.564Z,16.93
2018-08-30T07:01:29.747Z,16.99
2018-08-30T07:03:57.904Z,16.96
2018-08-30T07:06:26.060Z,16.98
2018-08-30T07:08:54.244Z,16.95
2018-08-30T07:11:22.449Z,16.91
2018-08-30T07:13:50.611Z,16.99
2018-08-30T07:16:18.781Z,17.00
2018-08-30T07:18:46.931Z,17.01
2018-08-30T07:21:15.126Z,17.02
2018-08-30T07:23:43.268Z,16.97
2018-08-30T07:26:11.432Z,16.96
2018-08-30T07:28:39.856Z,16.93
2018-08-30T07:31:07.865Z,16.93
2018-08-30T07:33:36.012Z,16.94
2018-08-30T07:36:04.136Z,16.95
2018-08-30T07:38:32.301Z,17.01
2018-08-30T07:41:00.513Z,16.99
2018-08-30T07:43:28.661Z,17.10
2018-08-30T07:45:56.848Z,17.03
2018-08-30T07:48:25.019Z,17.15
2018-08-30T07:50:53.230Z,17.09
2018-08-30T07:53:21.359Z,17.05
2018-08-30T07:55:49.472Z,17.01
2018-08-30T07:58:17.587Z,16.95
2018-08-30T08:00:48.010Z,17.03
2018-08-30T08:03:16.897Z,17.07
2018-08-30T08:05:45.021Z,17.06
2018-08-30T08:08:13.189Z,16.97
2018-08-30T08:10:41.359Z,17.10
2018-08-30T08:13:09.461Z,17.12
2018-08-30T08:15:37.599Z,17.15
2018-08-30T08:18:05.784Z,17.19
2018-08-30T08:20:33.943Z,17.14
2018-08-30T08:23:02.105Z,17.08
2018-08-30T08:25:30.331Z,17.08
2018-08-30T08:27:58.701Z,17.08
2018-08-30T08:30:26.877Z,16.93
2018-08-30T08:32:55.009Z,16.91
2018-08-30T08:35:23.230Z,16.98
2018-08-30T08:37:51.431Z,17.09
2018-08-30T08:40:19.537Z,17.12
2018-08-30T08:42:47.716Z,17.14
2018-08-30T08:45:15.881Z,17.08
2018-08-30T08:47:44.036Z,17.14
2018-08-30T08:50:12.216Z,17.14
2018-08-30T08:52:40.332Z,17.14
2018-08-30T08:55:08.500Z,17.04
2018-08-30T08:57:36.657Z,17.07
2018-08-30T09:00:04.921Z,16.96
2018-08-30T09:02:33.050Z,17.09
2018-08-30T09:05:01.177Z,17.09
2018-08-30T09:07:30.192Z,17.16
2018-08-30T09:09:58.275Z,17.21
2018-08-30T09:12:26.415Z,17.24
2018-08-30T09:14:54.554Z,17.24
2018-08-30T09:17:22.661Z,17.38
2018-08-30T09:19:50.807Z,17.28
2018-08-30T09:22:18.982Z,17.21
2018-08-30T09:24:47.110Z,17.29
2018-08-30T09:27:15.267Z,17.30
2018-08-30T09:29:43.403Z,17.31
2018-08-30T09:32:11.551Z,17.44
2018-08-30T09:34:39.726Z,17.53
2018-08-30T09:37:07.900Z,17.51
2018-08-30T09:39:36.111Z,17.40
2018-08-30T09:42:04.370Z,17.45
2018-08-30T09:44:32.516Z,17.48
2018-08-30T09:47:00.714Z,17.38
2018-08-30T09:49:28.960Z,17.39
2018-08-30T09:51:57.036Z,17.43
2018-08-30T09:54:25.183Z,17.31
2018-08-30T09:56:53.346Z,17.45
2018-08-30T09:59:21.476Z,17.28
2018-08-30T10:01:50.822Z,17.37
2018-08-30T10:04:20.064Z,17.36
2018-08-30T10:06:48.222Z,17.37
2018-08-30T10:09:16.372Z,17.31
2018-08-30T10:11:44.496Z,17.31
2018-08-30T10:14:12.700Z,17.32
2018-08-30T10:16:40.869Z,17.19
2018-08-30T10:19:08.989Z,17.25
2018-08-30T10:21:37.214Z,17.25
2018-08-30T10:24:05.357Z,17.33
2018-08-30T10:26:33.527Z,17.45
2018-08-30T10:29:01.688Z,17.43
2018-08-30T10:31:29.919Z,17.47
2018-08-30T10:33:58.068Z,17.40
2018-08-30T10:36:26.221Z,17.33
2018-08-30T10:38:54.410Z,17.33
2018-08-30T10:41:22.556Z,17.35
2018-08-30T10:43:50.776Z,17.34
2018-08-30T10:46:18.927Z,17.36
2018-08-30T10:48:47.088Z,17.45
2018-08-30T10:51:15.279Z,17.50
2018-08-30T10:53:44.364Z,17.56
2018-08-30T10:56:13.121Z,17.36
2018-08-30T10:58:41.278Z,17.42
2018-08-30T11:01:10.434Z,17.38
2018-08-30T11:03:39.381Z,17.29
2018-08-30T11:06:07.536Z,17.43
2018-08-30T11:08:35.694Z,17.60
2018-08-30T11:11:03.849Z,17.69
2018-08-30T11:13:31.995Z,17.70
2018-08-30T11:16:00.156Z,17.56
2018-08-30T11:18:28.276Z,17.47
2018-08-30T11:20:56.464Z,17.49
2018-08-30T11:23:24.588Z,17.27
2018-08-30T11:25:52.777Z,17.32
2018-08-30T11:28:20.928Z,17.35
2018-08-30T11:30:49.096Z,17.39
2018-08-30T11:33:17.220Z,17.30
2018-08-30T11:35:45.427Z,17.24
2018-08-30T11:38:13.583Z,17.11
2018-08-30T11:40:41.786Z,17.10
2018-08-30T11:43:09.967Z,16.99
2018-08-30T11:45:38.121Z,17.01
2018-08-30T11:48:06.302Z,16.82
2018-08-30T11:50:34.487Z,16.85
2018-08-30T11:53:02.613Z,16.87
2018-08-30T11:55:30.765Z,16.86
2018-08-30T11:57:58.915Z,16.65
2018-08-30T12:00:27.186Z,16.72
2018-08-30T12:02:57.048Z,16.70
2018-08-30T12:05:25.220Z,16.70
2018-08-30T12:07:53.408Z,16.71
2018-08-30T12:10:21.561Z,16.66
2018-08-30T12:12:49.741Z,16.69
2018-08-30T12:15:17.900Z,16.61
2018-08-30T12:17:46.064Z,16.59
2018-08-30T12:20:14.188Z,16.63
2018-08-30T12:22:42.341Z,16.59
2018-08-30T12:25:10.520Z,16.57
2018-08-30T12:27:38.646Z,16.49
2018-08-30T12:30:06.909Z,16.44
2018-08-30T12:32:35.083Z,16.33
2018-08-30T12:35:03.227Z,16.16
2018-08-30T12:37:31.272Z,16.28
2018-08-30T12:39:59.559Z,16.12
2018-08-30T12:42:27.694Z,16.16
2018-08-30T12:44:55.750Z,16.19
2018-08-30T12:47:24.141Z,16.13
2018-08-30T12:49:52.351Z,16.18
2018-08-30T12:52:20.529Z,16.29
2018-08-30T12:54:48.775Z,16.34
2018-08-30T12:57:16.974Z,16.42
2018-08-30T12:59:45.475Z,16.41
2018-08-30T13:02:14.527Z,16.42
2018-08-30T13:04:42.758Z,16.29
2018-08-30T13:07:10.803Z,16.25
2018-08-30T13:09:39.083Z,16.24
2018-08-30T13:12:07.717Z,16.12
2018-08-30T13:14:36.102Z,16.10
2018-08-30T13:17:04.381Z,16.16
2018-08-30T13:19:32.798Z,16.10
2018-08-30T13:22:01.067Z,16.14
2018-08-30T13:24:29.152Z,16.16
2018-08-30T13:26:57.177Z,16.19
2018-08-30T13:29:25.450Z,16.14
2018-08-30T13:31:53.608Z,16.22
2018-08-30T13:34:21.965Z,16.16
2018-08-30T13:36:50.290Z,16.23
2018-08-30T13:39:18.404Z,16.10
2018-08-30T13:41:46.519Z,16.09
2018-08-30T13:44:14.667Z,16.18
2018-08-30T13:46:43.269Z,16.22
2018-08-30T13:49:12.255Z,16.05
2018-08-30T13:51:40.556Z,16.02
2018-08-30T13:54:08.764Z,16.13
2018-08-30T13:56:37.105Z,16.11
2018-08-30T13:59:05.476Z,16.08
2018-08-30T14:01:33.825Z,15.93
2018-08-30T14:04:01.963Z,15.95
2018-08-30T14:06:30.163Z,16.03
2018-08-30T14:08:58.613Z,15.96
2018-08-30T14:11:27.265Z,15.87
2018-08-30T14:13:55.632Z,15.88
2018-08-30T14:16:23.517Z,15.82
2018-08-30T14:18:51.838Z,15.79
2018-08-30T14:21:20.048Z,15.80
2018-08-30T14:23:48.251Z,15.67
2018-08-30T14:26:16.427Z,15.59
2018-08-30T14:28:44.647Z,15.54
2018-08-30T14:31:12.845Z,15.60
2018-08-30T14:33:41.968Z,15.60
2018-08-30T14:36:10.448Z,15.64
2018-08-30T14:38:38.744Z,15.52
2018-08-30T14:41:07.105Z,15.62
2018-08-30T14:43:36.083Z,15.76
2018-08-30T14:46:04.270Z,15.49
2018-08-30T14:48:32.444Z,15.58
2018-08-30T14:51:00.813Z,15.54
2018-08-30T14:53:29.049Z,15.66
2018-08-30T14:55:57.064Z,15.65
2018-08-30T14:58:25.220Z,15.77
2018-08-30T15:00:53.397Z,15.78
2018-08-30T15:03:21.732Z,15.71
2018-08-30T15:05:50.005Z,15.76
2018-08-30T15:08:18.099Z,15.83
2018-08-30T15:10:46.535Z,15.96
2018-08-30T15:13:14.780Z,15.86
2018-08-30T15:15:42.960Z,15.95
2018-08-30T15:18:16.967Z,15.85
2018-08-30T15:23:51.012Z,15.93
2018-08-30T15:26:24.887Z,15.93
2018-08-30T15:28:59.686Z,15.95
2018-08-30T15:31:43.791Z,15.94
2018-08-30T15:34:18.676Z,15.95
2018-08-30T15:36:58.636Z,16.00
2018-08-30T15:39:32.233Z,16.14
2018-08-30T15:42:10.828Z,16.11
2018-08-30T15:44:59.553Z,16.12
2018-08-30T15:47:28.755Z,16.23
2018-08-30T15:49:56.752Z,16.23
2018-08-30T15:52:24.919Z,16.20
2018-08-30T15:54:53.113Z,16.15
2018-08-30T15:57:21.457Z,16.21
2018-08-30T15:59:49.405Z,16.21
2018-08-30T16:02:17.639Z,16.21
2018-08-30T16:04:45.841Z,16.24
2018-08-30T16:07:14.022Z,16.26
2018-08-30T16:09:43.013Z,16.23
2018-08-30T16:12:11.178Z,16.24
2018-08-30T16:14:39.288Z,16.23
2018-08-30T16:17:07.556Z,16.34
2018-08-30T16:19:35.701Z,16.27
2018-08-30T16:22:03.912Z,16.29
2018-08-30T16:24:32.067Z,16.45
2018-08-30T16:27:00.153Z,16.45
2018-08-30T16:29:28.296Z,16.38
2018-08-30T16:31:56.424Z,16.49
2018-08-30T16:34:24.576Z,16.61
2018-08-30T16:36:52.712Z,16.60
2018-08-30T16:39:20.849Z,16.56
2018-08-30T16:41:48.985Z,16.49
2018-08-30T16:44:17.123Z,16.56
2018-08-30T16:46:45.341Z,16.55
2018-08-30T16:49:13.461Z,16.56
2018-08-30T16:51:41.611Z,16.62
2018-08-30T16:54:09.729Z,16.56
2018-08-30T16:56:37.888Z,16.64
2018-08-30T16:59:06.145Z,16.72
2018-08-30T17:01:34.220Z,16.81
2018-08-30T17:04:02.392Z,16.78
2018-08-30T17:06:30.630Z,16.74
2018-08-30T17:08:58.704Z,16.54
2018-08-30T17:11:37.977Z,16.58
2018-08-30T17:14:19.964Z,16.61
2018-08-30T17:17:01.545Z,16.48
2018-08-30T17:19:42.614Z,16.39
2018-08-30T17:22:11.548Z,16.36
2018-08-30T17:24:39.730Z,16.30
2018-08-30T17:27:08.240Z,16.33
2018-08-30T17:29:36.378Z,16.21
2018-08-30T17:32:04.496Z,16.29
2018-08-30T17:34:32.633Z,16.28
2018-08-30T17:37:00.782Z,16.26
2018-08-30T17:39:28.835Z,16.12
2018-08-30T17:41:56.984Z,16.08
2018-08-30T17:44:25.110Z,16.02
2018-08-30T17:46:53.265Z,15.94
2018-08-30T17:49:21.413Z,16.03
2018-08-30T17:51:49.541Z,15.93
2018-08-30T17:54:17.786Z,15.78
2018-08-30T17:56:45.960Z,15.69
2018-08-30T17:59:14.112Z,15.66
2018-08-30T18:01:42.252Z,15.62
2018-08-30T18:04:10.391Z,15.67
2018-08-30T18:06:38.704Z,15.53
2018-08-30T18:09:07.353Z,15.52
2018-08-30T18:11:35.633Z,15.55
2018-08-30T18:14:03.778Z,15.50
2018-08-30T18:16:32.482Z,15.41
2018-08-30T18:19:00.695Z,15.46
2018-08-30T18:21:28.805Z,15.32
2018-08-30T18:23:57.353Z,15.24
2018-08-30T18:26:25.525Z,15.19
2018-08-30T18:28:53.655Z,15.19
2018-08-30T18:31:21.884Z,15.28
2018-08-30T18:33:49.986Z,15.11
2018-08-30T18:36:18.236Z,15.19
2018-08-30T18:38:46.376Z,15.15
2018-08-30T18:41:14.541Z,15.13
2018-08-30T18:43:43.601Z,15.10
2018-08-30T18:46:11.796Z,15.15
2018-08-30T18:48:39.960Z,15.06
2018-08-30T18:51:08.128Z,15.01
2018-08-30T18:53:36.311Z,15.11
2018-08-30T18:56:04.481Z,15.09
2018-08-30T18:58:32.596Z,15.04
2018-08-30T19:01:00.771Z,15.07
2018-08-30T19:03:28.866Z,14.98
2018-08-30T19:05:57.663Z,15.01
2018-08-30T19:08:25.844Z,14.98
2018-08-30T19:10:53.954Z,14.95
2018-08-30T19:13:22.109Z,14.83
2018-08-30T19:15:55.530Z,14.80
2018-08-30T19:18:29.137Z,14.80
2018-08-30T19:20:57.598Z,14.85
2018-08-30T19:23:25.732Z,14.80
2018-08-30T19:25:53.856Z,14.64
2018-08-30T19:28:21.988Z,14.66
2018-08-30T19:30:50.232Z,14.56
2018-08-30T19:33:18.340Z,14.54
2018-08-30T19:35:51.821Z,14.48
2018-08-30T19:38:20.039Z,14.51
2018-08-30T19:40:53.610Z,14.42
2018-08-30T19:43:21.802Z,14.33
2018-08-30T19:45:49.955Z,14.38
2018-08-30T19:48:18.068Z,14.43
2018-08-30T19:50:46.169Z,14.40
2018-08-30T19:53:14.310Z,14.40
2018-08-30T19:55:42.789Z,14.38
2018-08-30T19:58:10.887Z,14.43
2018-08-30T20:00:39.000Z,14.39
2018-08-30T20:03:07.152Z,14.26
2018-08-30T20:05:35.342Z,14.23
2018-08-30T20:08:03.492Z,14.32
2018-08-30T20:10:31.701Z,14.18
2018-08-30T20:12:59.848Z,14.21
2018-08-30T20:15:28.045Z,14.11
2018-08-30T20:17:56.211Z,14.08
2018-08-30T20:20:24.413Z,14.13
2018-08-30T20:22:52.563Z,14.09
2018-08-30T20:25:20.741Z,14.04
2018-08-30T20:27:49.000Z,14.10
2018-08-30T20:30:17.127Z,14.05
2018-08-30T20:32:45.254Z,13.99
2018-08-30T20:35:13.416Z,13.89
2018-08-30T20:37:41.542Z,13.96
2018-08-30T20:40:09.723Z,13.91
2018-08-30T20:42:37.894Z,13.89
2018-08-30T20:45:06.060Z,13.80
2018-08-30T20:47:34.214Z,13.84
2018-08-30T20:50:02.387Z,13.77
2018-08-30T20:52:30.550Z,13.78
2018-08-30T20:54:58.699Z,13.70
2018-08-30T20:57:26.824Z,13.68
2018-08-30T20:59:55.028Z,13.70
2018-08-30T21:02:23.237Z,13.59
2018-08-30T21:04:51.462Z,13.70
2018-08-30T21:07:19.613Z,13.61
2018-08-30T21:09:47.810Z,13.68
2018-08-30T21:12:15.972Z,13.56
2018-08-30T21:14:44.132Z,13.58
2018-08-30T21:17:12.285Z,13.57
2018-08-30T21:19:40.853Z,13.51
2018-08-30T21:22:09.080Z,13.47
2018-08-30T21:24:37.277Z,13.42
2018-08-30T21:27:05.557Z,13.48
2018-08-30T21:29:33.702Z,13.34
2018-08-30T21:32:01.856Z,13.35
2018-08-30T21:34:29.976Z,13.41
2018-08-30T21:36:58.117Z,13.30
2018-08-30T21:39:26.330Z,13.21
2018-08-30T21:41:54.476Z,13.34
2018-08-30T21:44:22.609Z,13.31
2018-08-30T21:46:50.768Z,13.29
2018-08-30T21:49:18.915Z,13.19
2018-08-30T21:51:47.092Z,13.21
2018-08-30T21:54:15.229Z,13.13
2018-08-30T21:56:43.392Z,13.15
2018-08-30T21:59:11.583Z,13.00
2018-08-30T22:01:39.749Z,13.01
2018-08-30T22:04:07.944Z,13.09
2018-08-30T22:06:36.106Z,13.10
2018-08-30T22:09:05.957Z,13.06
2018-08-30T22:11:34.093Z,13.11
2018-08-30T22:14:02.325Z,13.00
2018-08-30T22:16:30.452Z,12.93
2018-08-30T22:18:58.597Z,12.93
2018-08-30T22:21:26.738Z,12.89
2018-08-30T22:23:54.910Z,12.85
2018-08-30T22:26:23.065Z,12.84
2018-08-30T22:28:51.234Z,12.71
2018-08-30T22:31:19.372Z,12.79
2018-08-30T22:33:47.593Z,12.67
2018-08-30T22:36:15.792Z,12.61
2018-08-30T22:38:43.948Z,12.53
2018-08-30T22:41:12.122Z,12.63
2018-08-30T22:43:40.597Z,12.53
2018-08-30T22:46:08.847Z,12.48
2018-08-30T22:48:37.045Z,12.52
2018-08-30T22:51:05.272Z,12.60
2018-08-30T22:53:33.460Z,12.60
2018-08-30T22:56:01.973Z,12.64
2018-08-30T22:58:30.708Z,12.62
2018-08-30T23:00:58.907Z,12.53
2018-08-30T23:03:27.210Z,12.52
2018-08-30T23:05:55.447Z,12.58
2018-08-30T23:08:23.633Z,12.61
2018-08-30T23:10:53.233Z,12.48
2018-08-30T23:13:21.361Z,12.51
2018-08-30T23:15:49.598Z,12.48
2018-08-30T23:18:17.766Z,12.49
2018-08-30T23:20:45.936Z,12.49
2018-08-30T23:23:14.081Z,12.45
2018-08-30T23:25:42.243Z,12.40
2018-08-30T23:28:10.401Z,12.24
2018-08-30T23:30:38.678Z,12.25
2018-08-30T23:33:06.826Z,12.31
2018-08-30T23:35:34.981Z,12.17
2018-08-30T23:38:03.124Z,12.20
2018-08-30T23:40:31.300Z,12.18
2018-08-30T23:42:59.522Z,12.22
2018-08-30T23:45:27.681Z,12.09
2018-08-30T23:47:55.851Z,12.08
2018-08-30T23:50:24.020Z,12.08
2018-08-30T23:52:52.198Z,12.05
2018-08-30T23:55:20.413Z,12.06
2018-08-30T23:57:59.761Z,12.00
